createdAt,value
2018-08-13T00:00:49.310Z,17.02
2018-08-13T00:01:49.053Z,16.95
2018-08-13T00:02:49.295Z,17
2018-08-13T00:03:49.043Z,16.99
2018-08-13T00:04:49.294Z,16.95
2018-08-13T00:05:49.289Z,17.02
2018-08-13T00:06:49.281Z,17.07
2018-08-13T00:07:49.279Z,16.92
2018-08-13T00:08:49.281Z,17.03
2018-08-13T00:09:48.760Z,17.07
2018-08-13T00:10:49.272Z,17.05
2018-08-13T00:11:49.262Z,17.12
2018-08-13T00:12:49.001Z,17.18
2018-08-13T00:13:48.997Z,17.03
2018-08-13T00:14:48.990Z,17.1
2018-08-13T00:15:48.991Z,17.03
2018-08-13T00:16:49.236Z,17
2018-08-13T00:17:49.070Z,17.06
2018-08-13T00:18:49.237Z,17.05
2018-08-13T00:19:48.966Z,17.03
2018-08-13T00:20:49.226Z,17.07
2018-08-13T00:21:49.219Z,16.99
2018-08-13T00:22:49.209Z,17.02
2018-08-13T00:23:48.958Z,16.99
2018-08-13T00:24:48.951Z,17
2018-08-13T00:25:49.198Z,16.87
2018-08-13T00:26:49.199Z,16.87
2018-08-13T00:27:48.936Z,16.85
2018-08-13T00:28:48.932Z,16.85
2018-08-13T00:29:49.184Z,16.74
2018-08-13T00:30:49.229Z,16.87
2018-08-13T00:31:49.176Z,16.77
2018-08-13T00:32:49.171Z,16.81
2018-08-13T00:33:49.225Z,16.82
2018-08-13T00:34:48.905Z,16.77
2018-08-13T00:35:49.159Z,16.8
2018-08-13T00:36:48.640Z,16.76
2018-08-13T00:37:49.151Z,16.74
2018-08-13T00:38:49.149Z,16.72
2018-08-13T00:39:49.143Z,16.72
2018-08-13T00:40:49.152Z,16.76
2018-08-13T00:41:48.876Z,16.82
2018-08-13T00:42:49.136Z,16.76
2018-08-13T00:43:49.139Z,16.81
2018-08-13T00:44:48.866Z,16.81
2018-08-13T00:45:49.115Z,16.88
2018-08-13T00:46:49.115Z,16.73
2018-08-13T00:47:49.107Z,16.81
2018-08-13T00:48:49.103Z,16.72
2018-08-13T00:49:48.838Z,16.76
2018-08-13T00:50:48.839Z,16.7
2018-08-13T00:51:48.828Z,16.65
2018-08-13T00:52:49.086Z,16.66
2018-08-13T00:53:49.084Z,16.7
2018-08-13T00:54:49.079Z,16.52
2018-08-13T00:55:48.813Z,16.52
2018-08-13T00:56:49.067Z,16.59
2018-08-13T00:57:49.063Z,16.51
2018-08-13T00:58:49.066Z,16.45
2018-08-13T00:59:48.796Z,16.48
2018-08-13T01:00:49.053Z,16.49
2018-08-13T01:01:49.050Z,16.52
2018-08-13T01:02:49.043Z,16.37
2018-08-13T01:03:49.039Z,16.42
2018-08-13T01:04:48.778Z,16.44
2018-08-13T01:05:49.032Z,16.32
2018-08-13T01:06:49.020Z,16.3
2018-08-13T01:07:49.024Z,16.32
2018-08-13T01:08:49.011Z,16.3
2018-08-13T01:09:49.010Z,16.33
2018-08-13T01:10:49.007Z,16.29
2018-08-13T01:11:49.005Z,16.32
2018-08-13T01:12:48.990Z,16.22
2018-08-13T01:13:48.992Z,16.3
2018-08-13T01:14:48.739Z,16.27
2018-08-13T01:15:48.982Z,16.34
2018-08-13T01:16:48.976Z,16.34
2018-08-13T01:17:48.974Z,16.29
2018-08-13T01:18:48.970Z,16.32
2018-08-13T01:19:48.705Z,16.26
2018-08-13T01:20:49.016Z,16.27
2018-08-13T01:21:48.960Z,16.29
2018-08-13T01:22:48.954Z,16.29
2018-08-13T01:23:48.692Z,16.27
2018-08-13T01:24:48.945Z,16.27
2018-08-13T01:25:48.938Z,16.25
2018-08-13T01:26:48.678Z,16.16
2018-08-13T01:27:48.953Z,16.26
2018-08-13T01:28:48.411Z,16.25
2018-08-13T01:29:48.663Z,16.18
2018-08-13T01:30:48.657Z,16.32
2018-08-13T01:31:48.921Z,16.29
2018-08-13T01:32:48.912Z,16.3
2018-08-13T01:33:48.901Z,16.13
2018-08-13T01:34:48.891Z,16.18
2018-08-13T01:35:48.633Z,16.27
2018-08-13T01:36:48.625Z,16.16
2018-08-13T01:37:48.878Z,16.14
2018-08-13T01:38:48.617Z,16.25
2018-08-13T01:39:48.877Z,16.14
2018-08-13T01:40:48.613Z,16.16
2018-08-13T01:41:48.861Z,16.21
2018-08-13T01:42:48.861Z,16.18
2018-08-13T01:43:48.854Z,16.1
2018-08-13T01:44:48.844Z,16.16
2018-08-13T01:45:48.586Z,16.1
2018-08-13T01:46:48.834Z,16.1
2018-08-13T01:47:48.576Z,16.08
2018-08-13T01:48:48.571Z,16.08
2018-08-13T01:49:48.829Z,16.04
2018-08-13T01:50:48.823Z,16.02
2018-08-13T01:51:48.817Z,16.06
2018-08-13T01:52:48.296Z,16.04
2018-08-13T01:53:48.805Z,16.02
2018-08-13T01:54:48.795Z,16
2018-08-13T01:55:48.284Z,16.04
2018-08-13T01:56:48.789Z,16.04
2018-08-13T01:57:48.788Z,15.95
2018-08-13T01:58:48.783Z,16.04
2018-08-13T01:59:48.779Z,16.02
2018-08-13T02:00:48.770Z,16
2018-08-13T02:01:49.133Z,15.96
2018-08-13T02:02:48.503Z,15.91
2018-08-13T02:03:48.761Z,15.83
2018-08-13T02:04:48.753Z,15.86
2018-08-13T02:05:48.743Z,15.86
2018-08-13T02:06:48.485Z,15.83
2018-08-13T02:07:48.741Z,15.89
2018-08-13T02:08:48.736Z,15.83
2018-08-13T02:09:48.732Z,15.89
2018-08-13T02:10:48.467Z,15.86
2018-08-13T02:11:48.714Z,15.75
2018-08-13T02:12:48.716Z,15.8
2018-08-13T02:13:48.455Z,15.74
2018-08-13T02:14:48.703Z,15.74
2018-08-13T02:15:48.703Z,15.78
2018-08-13T02:16:48.437Z,15.77
2018-08-13T02:17:48.689Z,15.71
2018-08-13T02:18:48.686Z,15.8
2018-08-13T02:19:48.673Z,15.77
2018-08-13T02:20:48.674Z,15.7
2018-08-13T02:21:48.668Z,15.71
2018-08-13T02:22:48.661Z,15.71
2018-08-13T02:23:48.404Z,15.65
2018-08-13T02:24:48.659Z,15.59
2018-08-13T02:25:48.656Z,15.62
2018-08-13T02:26:48.640Z,15.59
2018-08-13T02:27:48.636Z,15.65
2018-08-13T02:28:48.638Z,15.65
2018-08-13T02:29:48.385Z,15.62
2018-08-13T02:30:48.113Z,15.59
2018-08-13T02:31:48.630Z,15.73
2018-08-13T02:32:48.624Z,15.7
2018-08-13T02:33:48.616Z,15.7
2018-08-13T02:34:48.607Z,15.6
2018-08-13T02:35:48.347Z,15.58
2018-08-13T02:36:48.341Z,15.65
2018-08-13T02:37:48.670Z,15.65
2018-08-13T02:38:48.336Z,15.63
2018-08-13T02:39:48.581Z,15.7
2018-08-13T02:40:48.321Z,15.71
2018-08-13T02:41:48.571Z,15.68
2018-08-13T02:42:48.564Z,15.71
2018-08-13T02:43:48.576Z,15.74
2018-08-13T02:44:48.556Z,15.7
2018-08-13T02:45:48.551Z,15.71
2018-08-13T02:46:48.290Z,15.68
2018-08-13T02:47:48.545Z,15.68
2018-08-13T02:48:48.278Z,15.73
2018-08-13T02:49:48.271Z,15.7
2018-08-13T02:50:48.527Z,15.73
2018-08-13T02:51:48.522Z,15.67
2018-08-13T02:52:48.267Z,15.62
2018-08-13T02:53:48.519Z,15.65
2018-08-13T02:54:48.507Z,15.62
2018-08-13T02:55:48.248Z,15.6
2018-08-13T02:56:48.502Z,15.62
2018-08-13T02:57:48.229Z,15.62
2018-08-13T02:58:48.526Z,15.56
2018-08-13T02:59:48.225Z,15.62
2018-08-13T03:00:48.221Z,15.6
2018-08-13T03:01:48.464Z,15.63
2018-08-13T03:02:48.262Z,15.6
2018-08-13T03:03:48.198Z,15.63
2018-08-13T03:04:48.805Z,15.52
2018-08-13T03:05:48.188Z,15.59
2018-08-13T03:06:48.182Z,15.58
2018-08-13T03:07:48.437Z,15.56
2018-08-13T03:08:48.175Z,15.38
2018-08-13T03:09:48.424Z,15.43
2018-08-13T03:10:48.161Z,15.41
2018-08-13T03:11:48.428Z,15.44
2018-08-13T03:12:48.408Z,15.37
2018-08-13T03:13:48.407Z,15.4
2018-08-13T03:14:48.450Z,15.47
2018-08-13T03:15:48.411Z,15.45
2018-08-13T03:16:48.395Z,15.34
2018-08-13T03:17:48.381Z,15.34
2018-08-13T03:18:48.378Z,15.37
2018-08-13T03:19:48.128Z,15.43
2018-08-13T03:20:48.365Z,15.37
2018-08-13T03:21:48.105Z,15.37
2018-08-13T03:22:48.105Z,15.27
2018-08-13T03:23:48.353Z,15.34
2018-08-13T03:24:48.350Z,15.38
2018-08-13T03:25:48.350Z,15.4
2018-08-13T03:26:48.084Z,15.41
2018-08-13T03:27:48.075Z,15.34
2018-08-13T03:28:48.072Z,15.33
2018-08-13T03:29:48.061Z,15.4
2018-08-13T03:30:48.319Z,15.31
2018-08-13T03:31:48.326Z,15.37
2018-08-13T03:32:48.042Z,15.38
2018-08-13T03:33:48.296Z,15.27
2018-08-13T03:34:48.291Z,15.34
2018-08-13T03:35:48.291Z,15.37
2018-08-13T03:36:48.285Z,15.38
2018-08-13T03:37:48.276Z,15.34
2018-08-13T03:38:48.274Z,15.35
2018-08-13T03:39:48.267Z,15.35
2018-08-13T03:40:48.003Z,15.4
2018-08-13T03:41:48.258Z,15.37
2018-08-13T03:42:48.246Z,15.33
2018-08-13T03:43:48.246Z,15.4
2018-08-13T03:44:47.980Z,15.44
2018-08-13T03:45:47.973Z,15.52
2018-08-13T03:46:48.231Z,15.51
2018-08-13T03:47:48.226Z,15.56
2018-08-13T03:48:48.222Z,15.6
2018-08-13T03:49:48.207Z,15.62
2018-08-13T03:50:48.205Z,15.58
2018-08-13T03:51:48.208Z,15.58
2018-08-13T03:52:47.689Z,15.55
2018-08-13T03:53:48.480Z,15.56
2018-08-13T03:54:48.182Z,15.63
2018-08-13T03:55:47.921Z,15.62
2018-08-13T03:56:47.918Z,15.65
2018-08-13T03:57:48.172Z,15.65
2018-08-13T03:58:48.166Z,15.63
2018-08-13T03:59:48.163Z,15.59
2018-08-13T04:00:47.902Z,15.67
2018-08-13T04:01:48.152Z,15.65
2018-08-13T04:02:48.149Z,15.68
2018-08-13T04:03:48.135Z,15.59
2018-08-13T04:04:48.131Z,15.67
2018-08-13T04:05:48.136Z,15.63
2018-08-13T04:06:48.120Z,15.7
2018-08-13T04:07:48.114Z,15.59
2018-08-13T04:08:48.117Z,15.78
2018-08-13T04:09:47.849Z,15.81
2018-08-13T04:10:48.100Z,15.83
2018-08-13T04:11:48.093Z,15.83
2018-08-13T04:12:48.245Z,15.89
2018-08-13T04:13:47.570Z,15.92
2018-08-13T04:14:48.083Z,15.89
2018-08-13T04:15:48.074Z,15.93
2018-08-13T04:16:48.071Z,15.92
2018-08-13T04:17:48.065Z,15.99
2018-08-13T04:18:48.052Z,15.96
2018-08-13T04:19:48.059Z,15.96
2018-08-13T04:20:48.048Z,15.93
2018-08-13T04:21:48.043Z,15.84
2018-08-13T04:22:48.041Z,15.86
2018-08-13T04:23:48.032Z,15.98
2018-08-13T04:24:47.512Z,15.89
2018-08-13T04:25:48.027Z,16.02
2018-08-13T04:26:48.016Z,16.07
2018-08-13T04:27:47.753Z,16.17
2018-08-13T04:28:47.756Z,16.22
2018-08-13T04:29:48.004Z,16.18
2018-08-13T04:30:48.004Z,16.16
2018-08-13T04:31:47.996Z,16.21
2018-08-13T04:32:48.311Z,16.25
2018-08-13T04:33:47.984Z,16.21
2018-08-13T04:34:47.982Z,16.3
2018-08-13T04:35:47.974Z,16.29
2018-08-13T04:36:47.969Z,16.32
2018-08-13T04:37:47.960Z,16.3
2018-08-13T04:38:48.244Z,16.33
2018-08-13T04:39:47.696Z,16.32
2018-08-13T04:40:47.690Z,16.44
2018-08-13T04:41:47.685Z,16.39
2018-08-13T04:42:47.678Z,16.42
2018-08-13T04:43:47.943Z,16.47
2018-08-13T04:44:47.925Z,16.51
2018-08-13T04:45:47.926Z,16.51
2018-08-13T04:46:47.919Z,16.7
2018-08-13T04:47:47.910Z,16.73
2018-08-13T04:48:47.910Z,16.73
2018-08-13T04:49:47.906Z,16.77
2018-08-13T04:50:47.900Z,16.82
2018-08-13T04:51:47.907Z,16.82
2018-08-13T04:52:47.890Z,16.77
2018-08-13T04:53:47.892Z,16.76
2018-08-13T04:54:47.877Z,16.85
2018-08-13T04:55:47.875Z,16.92
2018-08-13T04:56:47.912Z,16.92
2018-08-13T04:57:47.609Z,16.95
2018-08-13T04:58:47.886Z,16.91
2018-08-13T04:59:47.852Z,17.02
2018-08-13T05:00:47.852Z,16.95
2018-08-13T05:01:47.605Z,16.92
2018-08-13T05:02:47.590Z,16.95
2018-08-13T05:03:47.587Z,16.95
2018-08-13T05:04:47.830Z,16.95
2018-08-13T05:05:47.821Z,17.07
2018-08-13T05:06:47.825Z,16.97
2018-08-13T05:07:47.824Z,17.06
2018-08-13T05:08:47.822Z,17.02
2018-08-13T05:09:47.299Z,17.06
2018-08-13T05:10:47.549Z,17.05
2018-08-13T05:11:47.808Z,16.99
2018-08-13T05:12:47.801Z,17.02
2018-08-13T05:13:47.791Z,17.06
2018-08-13T05:14:47.278Z,17.15
2018-08-13T05:15:47.783Z,17.1
2018-08-13T05:16:47.777Z,17.07
2018-08-13T05:17:47.780Z,17.15
2018-08-13T05:18:47.766Z,17.25
2018-08-13T05:19:47.764Z,17.22
2018-08-13T05:20:47.766Z,17.25
2018-08-13T05:21:47.763Z,17.36
2018-08-13T05:22:47.499Z,17.47
2018-08-13T05:23:47.771Z,17.46
2018-08-13T05:24:47.747Z,17.54
2018-08-13T05:25:47.747Z,17.47
2018-08-13T05:26:47.485Z,17.6
2018-08-13T05:27:47.482Z,17.54
2018-08-13T05:28:47.731Z,17.66
2018-08-13T05:29:47.468Z,17.66
2018-08-13T05:30:47.718Z,17.76
2018-08-13T05:31:47.464Z,17.83
2018-08-13T05:32:47.463Z,17.86
2018-08-13T05:33:47.715Z,17.9
2018-08-13T05:34:47.706Z,17.9
2018-08-13T05:35:47.700Z,17.95
2018-08-13T05:36:47.702Z,17.96
2018-08-13T05:37:47.694Z,17.98
2018-08-13T05:38:47.692Z,18.01
2018-08-13T05:39:47.688Z,18.08
2018-08-13T05:40:47.429Z,18.13
2018-08-13T05:41:47.672Z,18.23
2018-08-13T05:42:47.418Z,18.23
2018-08-13T05:43:47.672Z,18.27
2018-08-13T05:44:47.408Z,18.31
2018-08-13T05:45:47.410Z,18.34
2018-08-13T05:46:47.661Z,18.36
2018-08-13T05:47:47.652Z,18.42
2018-08-13T05:48:47.650Z,18.49
2018-08-13T05:49:47.393Z,18.51
2018-08-13T05:50:47.650Z,18.56
2018-08-13T05:51:47.391Z,18.51
2018-08-13T05:52:47.443Z,18.66
2018-08-13T05:53:47.634Z,18.72
2018-08-13T05:54:47.631Z,18.63
2018-08-13T05:55:47.374Z,18.63
2018-08-13T05:56:47.629Z,18.68
2018-08-13T05:57:47.370Z,18.68
2018-08-13T05:58:47.615Z,18.75
2018-08-13T05:59:47.615Z,18.75
2018-08-13T06:00:47.622Z,18.78
2018-08-13T06:01:47.613Z,18.96
2018-08-13T06:02:47.349Z,18.93
2018-08-13T06:03:47.604Z,18.91
2018-08-13T06:04:47.593Z,19.13
2018-08-13T06:05:47.333Z,19.16
2018-08-13T06:06:47.338Z,19.25
2018-08-13T06:07:47.337Z,19.24
2018-08-13T06:08:47.591Z,19.32
2018-08-13T06:09:47.588Z,19.31
2018-08-13T06:10:47.579Z,19.37
2018-08-13T06:11:47.446Z,19.43
2018-08-13T06:12:47.313Z,19.55
2018-08-13T06:13:47.584Z,19.49
2018-08-13T06:14:47.570Z,19.6
2018-08-13T06:15:47.565Z,19.63
2018-08-13T06:16:47.569Z,19.65
2018-08-13T06:17:47.564Z,19.75
2018-08-13T06:18:47.302Z,19.85
2018-08-13T06:19:47.556Z,19.9
2018-08-13T06:20:47.555Z,19.98
2018-08-13T06:21:47.552Z,19.97
2018-08-13T06:22:47.553Z,20
2018-08-13T06:23:47.544Z,20.02
2018-08-13T06:24:47.283Z,20.1
2018-08-13T06:25:47.026Z,20.07
2018-08-13T06:26:47.547Z,20.1
2018-08-13T06:27:47.538Z,20
2018-08-13T06:28:47.537Z,20.05
2018-08-13T06:29:47.534Z,20.05
2018-08-13T06:30:47.526Z,20.01
2018-08-13T06:31:47.556Z,20.05
2018-08-13T06:32:47.533Z,20.01
2018-08-13T06:33:47.263Z,20.12
2018-08-13T06:34:47.261Z,20.05
2018-08-13T06:35:47.568Z,20.05
2018-08-13T06:36:47.520Z,20.18
2018-08-13T06:37:47.514Z,20.2
2018-08-13T06:38:47.509Z,20.27
2018-08-13T06:39:47.248Z,20.23
2018-08-13T06:40:47.542Z,20.32
2018-08-13T06:41:47.249Z,20.3
2018-08-13T06:42:47.506Z,20.34
2018-08-13T06:43:47.523Z,20.38
2018-08-13T06:44:47.495Z,20.42
2018-08-13T06:45:47.500Z,20.51
2018-08-13T06:46:47.499Z,20.53
2018-08-13T06:47:47.489Z,20.61
2018-08-13T06:48:47.493Z,20.63
2018-08-13T06:49:47.231Z,20.56
2018-08-13T06:50:47.481Z,20.6
2018-08-13T06:51:47.481Z,20.54
2018-08-13T06:52:47.480Z,20.76
2018-08-13T06:53:47.222Z,21
2018-08-13T06:54:47.222Z,21.4
2018-08-13T06:55:47.219Z,22.02
2018-08-13T06:56:47.219Z,22.78
2018-08-13T06:57:47.478Z,23.67
2018-08-13T06:58:47.476Z,24.74
2018-08-13T06:59:47.213Z,25.67
2018-08-13T07:00:47.588Z,26.6
2018-08-13T07:01:47.467Z,27.51
2018-08-13T07:02:47.215Z,28.27
2018-08-13T07:03:47.217Z,28.98
2018-08-13T07:04:46.960Z,29.58
2018-08-13T07:05:46.961Z,30.11
2018-08-13T07:06:47.514Z,30.52
2018-08-13T07:07:47.475Z,31.13
2018-08-13T07:08:47.480Z,31.68
2018-08-13T07:09:47.485Z,32.06
2018-08-13T07:10:47.231Z,32.32
2018-08-13T07:11:47.494Z,32.69
2018-08-13T07:12:47.499Z,32.91
2018-08-13T07:13:47.493Z,33.23
2018-08-13T07:14:46.983Z,33.44
2018-08-13T07:15:47.627Z,33.73
2018-08-13T07:16:47.507Z,33.84
2018-08-13T07:17:47.519Z,34.08
2018-08-13T07:18:47.512Z,34.14
2018-08-13T07:19:47.259Z,34.18
2018-08-13T07:20:47.010Z,34.22
2018-08-13T07:21:47.271Z,34.43
2018-08-13T07:22:47.563Z,34.63
2018-08-13T07:23:47.535Z,34.72
2018-08-13T07:24:47.552Z,34.87
2018-08-13T07:25:47.558Z,35.23
2018-08-13T07:26:47.562Z,35.38
2018-08-13T07:27:47.367Z,35.38
2018-08-13T07:28:47.572Z,35.52
2018-08-13T07:29:47.329Z,35.67
2018-08-13T07:30:47.591Z,35.65
2018-08-13T07:31:47.601Z,35.52
2018-08-13T07:32:47.614Z,35.38
2018-08-13T07:33:47.798Z,35.26
2018-08-13T07:34:47.621Z,35.21
2018-08-13T07:35:47.112Z,35.39
2018-08-13T07:36:47.635Z,35.45
2018-08-13T07:37:47.389Z,35.67
2018-08-13T07:38:47.655Z,35.72
2018-08-13T07:39:47.655Z,35.76
2018-08-13T07:40:47.664Z,35.96
2018-08-13T07:41:47.678Z,36.15
2018-08-13T07:42:47.688Z,36.24
2018-08-13T07:43:47.689Z,36.32
2018-08-13T07:44:47.705Z,36.37
2018-08-13T07:45:47.614Z,36.32
2018-08-13T07:46:47.714Z,36.22
2018-08-13T07:47:47.727Z,36.14
2018-08-13T07:48:47.726Z,36.08
2018-08-13T07:49:47.561Z,36.17
2018-08-13T07:50:47.819Z,36.09
2018-08-13T07:51:48.103Z,35.96
2018-08-13T07:52:47.502Z,35.64
2018-08-13T07:53:47.765Z,35.34
2018-08-13T07:54:47.774Z,34.89
2018-08-13T07:55:47.267Z,34.4
2018-08-13T07:56:47.783Z,33.93
2018-08-13T07:57:47.539Z,33.44
2018-08-13T07:58:47.805Z,33.01
2018-08-13T07:59:47.553Z,32.59
2018-08-13T08:00:47.818Z,32.09
2018-08-13T08:01:47.570Z,31.77
2018-08-13T08:02:47.574Z,31.34
2018-08-13T08:03:47.837Z,30.94
2018-08-13T08:04:47.582Z,30.77
2018-08-13T08:05:47.841Z,30.35
2018-08-13T08:06:47.856Z,30.11
2018-08-13T08:07:47.865Z,29.89
2018-08-13T08:08:47.607Z,29.61
2018-08-13T08:09:47.871Z,29.45
2018-08-13T08:10:47.878Z,29.15
2018-08-13T08:11:47.881Z,29.01
2018-08-13T08:12:47.632Z,28.97
2018-08-13T08:13:47.896Z,28.82
2018-08-13T08:14:48.066Z,28.83
2018-08-13T08:15:47.946Z,28.8
2018-08-13T08:16:47.911Z,28.7
2018-08-13T08:17:47.916Z,28.67
2018-08-13T08:18:47.661Z,28.61
2018-08-13T08:19:47.669Z,28.57
2018-08-13T08:20:47.930Z,28.57
2018-08-13T08:21:47.938Z,28.61
2018-08-13T08:22:47.941Z,28.53
2018-08-13T08:23:47.950Z,28.51
2018-08-13T08:24:47.945Z,28.48
2018-08-13T08:25:47.951Z,28.41
2018-08-13T08:26:47.955Z,28.33
2018-08-13T08:27:47.962Z,28.3
2018-08-13T08:28:47.976Z,28.38
2018-08-13T08:29:47.971Z,28.2
2018-08-13T08:30:47.982Z,28.28
2018-08-13T08:31:47.977Z,28.21
2018-08-13T08:32:47.992Z,28.23
2018-08-13T08:33:48.005Z,28.26
2018-08-13T08:34:48.250Z,28.26
2018-08-13T08:35:48.007Z,28.3
2018-08-13T08:36:47.749Z,28.43
2018-08-13T08:37:48.017Z,28.55
2018-08-13T08:38:48.015Z,28.54
2018-08-13T08:39:47.761Z,28.64
2018-08-13T08:40:48.178Z,28.65
2018-08-13T08:41:47.770Z,28.72
2018-08-13T08:42:48.029Z,28.75
2018-08-13T08:43:47.787Z,28.72
2018-08-13T08:44:47.528Z,28.67
2018-08-13T08:45:48.075Z,28.57
2018-08-13T08:46:48.048Z,28.67
2018-08-13T08:47:48.051Z,28.76
2018-08-13T08:48:48.062Z,28.76
2018-08-13T08:49:47.802Z,28.79
2018-08-13T08:50:47.555Z,28.86
2018-08-13T08:51:48.074Z,28.85
2018-08-13T08:52:48.103Z,28.78
2018-08-13T08:53:48.085Z,28.88
2018-08-13T08:54:47.829Z,28.83
2018-08-13T08:55:48.091Z,28.83
2018-08-13T08:56:48.093Z,28.83
2018-08-13T08:57:47.839Z,28.8
2018-08-13T08:58:47.843Z,28.82
2018-08-13T08:59:47.850Z,28.86
2018-08-13T09:00:48.256Z,28.88
2018-08-13T09:01:47.857Z,28.88
2018-08-13T09:02:48.120Z,28.94
2018-08-13T09:03:47.869Z,29.14
2018-08-13T09:04:48.124Z,29.26
2018-08-13T09:05:47.639Z,29.24
2018-08-13T09:06:48.137Z,29.35
2018-08-13T09:07:47.882Z,29.24
2018-08-13T09:08:48.150Z,29.29
2018-08-13T09:09:48.147Z,29.17
2018-08-13T09:10:48.152Z,29.24
2018-08-13T09:11:48.160Z,29.28
2018-08-13T09:12:47.903Z,29.3
2018-08-13T09:13:47.910Z,29.28
2018-08-13T09:14:48.175Z,29.36
2018-08-13T09:15:48.180Z,29.24
2018-08-13T09:16:47.932Z,29.29
2018-08-13T09:17:47.927Z,29.21
2018-08-13T09:18:48.186Z,29.3
2018-08-13T09:19:47.941Z,29.48
2018-08-13T09:20:48.198Z,29.47
2018-08-13T09:21:48.208Z,29.63
2018-08-13T09:22:47.949Z,29.66
2018-08-13T09:23:48.216Z,29.72
2018-08-13T09:24:47.968Z,29.67
2018-08-13T09:25:48.224Z,29.67
2018-08-13T09:26:48.229Z,29.65
2018-08-13T09:27:48.241Z,29.76
2018-08-13T09:28:48.240Z,29.81
2018-08-13T09:29:48.236Z,29.82
2018-08-13T09:30:47.992Z,29.81
2018-08-13T09:31:48.254Z,29.73
2018-08-13T09:32:47.743Z,29.79
2018-08-13T09:33:48.270Z,29.76
2018-08-13T09:34:48.007Z,29.73
2018-08-13T09:35:47.759Z,29.73
2018-08-13T09:36:48.211Z,29.76
2018-08-13T09:37:48.033Z,29.82
2018-08-13T09:38:48.287Z,29.89
2018-08-13T09:39:48.391Z,29.92
2018-08-13T09:40:47.784Z,29.97
2018-08-13T09:41:48.046Z,30.07
2018-08-13T09:42:48.343Z,30.11
2018-08-13T09:43:47.817Z,30.19
2018-08-13T09:44:48.315Z,30.32
2018-08-13T09:45:48.062Z,30.22
2018-08-13T09:46:48.068Z,30.31
2018-08-13T09:47:48.326Z,30.35
2018-08-13T09:48:48.343Z,30.54
2018-08-13T09:49:48.343Z,30.49
2018-08-13T09:50:48.349Z,30.37
2018-08-13T09:51:48.354Z,30.48
2018-08-13T09:52:48.359Z,30.42
2018-08-13T09:53:48.524Z,30.45
2018-08-13T09:54:48.366Z,30.56
2018-08-13T09:55:48.123Z,30.63
2018-08-13T09:56:48.124Z,30.75
2018-08-13T09:57:48.401Z,30.86
2018-08-13T09:58:48.391Z,30.99
2018-08-13T09:59:48.392Z,31.06
2018-08-13T10:00:48.400Z,31.03
2018-08-13T10:01:48.406Z,31.04
2018-08-13T10:02:48.153Z,31
2018-08-13T10:03:48.418Z,30.86
2018-08-13T10:04:48.421Z,30.7
2018-08-13T10:05:48.172Z,30.64
2018-08-13T10:06:48.439Z,30.73
2018-08-13T10:07:48.185Z,30.84
2018-08-13T10:08:48.446Z,30.73
2018-08-13T10:09:48.188Z,30.71
2018-08-13T10:10:48.595Z,30.6
2018-08-13T10:11:48.206Z,30.52
2018-08-13T10:12:48.466Z,30.35
2018-08-13T10:13:48.472Z,30.16
2018-08-13T10:14:48.482Z,30.29
2018-08-13T10:15:48.224Z,30.45
2018-08-13T10:16:48.763Z,30.71
2018-08-13T10:17:48.554Z,30.89
2018-08-13T10:18:48.243Z,31.03
2018-08-13T10:19:48.249Z,31.07
2018-08-13T10:20:48.258Z,31.1
2018-08-13T10:21:48.514Z,31.12
2018-08-13T10:22:48.524Z,31.06
2018-08-13T10:23:48.532Z,31.06
2018-08-13T10:24:48.547Z,31.18
2018-08-13T10:25:48.542Z,31.25
2018-08-13T10:26:48.549Z,31.34
2018-08-13T10:27:48.299Z,31.52
2018-08-13T10:28:48.568Z,31.7
2018-08-13T10:29:48.484Z,31.78
2018-08-13T10:30:48.577Z,32
2018-08-13T10:31:48.321Z,31.78
2018-08-13T10:32:48.329Z,31.58
2018-08-13T10:33:48.596Z,31.26
2018-08-13T10:34:48.341Z,31.1
2018-08-13T10:35:48.350Z,30.85
2018-08-13T10:36:48.611Z,30.59
2018-08-13T10:37:48.618Z,30.39
2018-08-13T10:38:48.370Z,30.34
2018-08-13T10:39:48.633Z,30.42
2018-08-13T10:40:48.379Z,30.56
2018-08-13T10:41:48.392Z,30.63
2018-08-13T10:42:48.657Z,30.75
2018-08-13T10:43:48.660Z,30.78
2018-08-13T10:44:48.771Z,30.67
2018-08-13T10:45:48.672Z,30.66
2018-08-13T10:46:48.683Z,30.54
2018-08-13T10:47:48.428Z,30.42
2018-08-13T10:48:48.429Z,30.48
2018-08-13T10:49:48.702Z,30.4
2018-08-13T10:50:48.445Z,30.37
2018-08-13T10:51:48.444Z,30.31
2018-08-13T10:52:48.454Z,30.24
2018-08-13T10:53:48.724Z,30.26
2018-08-13T10:54:48.464Z,30.11
2018-08-13T10:55:48.476Z,29.98
2018-08-13T10:56:48.741Z,29.89
2018-08-13T10:57:48.504Z,29.91
2018-08-13T10:58:48.749Z,30
2018-08-13T10:59:48.500Z,30.06
2018-08-13T11:00:48.764Z,30.21
2018-08-13T11:01:48.766Z,30.18
2018-08-13T11:02:48.886Z,30.21
2018-08-13T11:03:48.774Z,30.34
2018-08-13T11:04:48.526Z,30.32
2018-08-13T11:05:48.530Z,30.37
2018-08-13T11:06:48.794Z,30.37
2018-08-13T11:07:48.794Z,30.35
2018-08-13T11:08:48.805Z,30.31
2018-08-13T11:09:48.810Z,30.45
2018-08-13T11:10:48.820Z,30.44
2018-08-13T11:11:48.565Z,30.35
2018-08-13T11:12:48.828Z,30.44
2018-08-13T11:13:48.583Z,30.32
2018-08-13T11:14:48.842Z,30.32
2018-08-13T11:15:48.584Z,30.21
2018-08-13T11:16:48.595Z,30.18
2018-08-13T11:17:48.602Z,30.16
2018-08-13T11:18:48.601Z,30.11
2018-08-13T11:19:48.871Z,30.03
2018-08-13T11:20:48.867Z,29.88
2018-08-13T11:21:48.487Z,29.79
2018-08-13T11:22:48.642Z,29.89
2018-08-13T11:23:48.975Z,29.84
2018-08-13T11:24:48.894Z,29.82
2018-08-13T11:25:48.639Z,29.94
2018-08-13T11:26:48.387Z,30
2018-08-13T11:27:48.946Z,30.02
2018-08-13T11:28:49.209Z,30.13
2018-08-13T11:29:48.972Z,30.02
2018-08-13T11:30:48.922Z,30.07
2018-08-13T11:31:48.924Z,30.19
2018-08-13T11:32:48.945Z,30.19
2018-08-13T11:33:48.939Z,30.19
2018-08-13T11:34:49.073Z,30.24
2018-08-13T11:35:48.956Z,30.21
2018-08-13T11:36:48.961Z,30.24
2018-08-13T11:37:48.707Z,30.21
2018-08-13T11:38:48.996Z,30.22
2018-08-13T11:39:48.711Z,30.28
2018-08-13T11:40:49.413Z,30.34
2018-08-13T11:41:48.721Z,30.4
2018-08-13T11:42:48.731Z,30.42
2018-08-13T11:43:48.992Z,30.26
2018-08-13T11:44:48.996Z,30.14
2018-08-13T11:45:48.487Z,30.07
2018-08-13T11:46:49.006Z,29.97
2018-08-13T11:47:49.020Z,29.89
2018-08-13T11:48:49.014Z,29.92
2018-08-13T11:49:49.025Z,30.04
2018-08-13T11:50:48.774Z,29.98
2018-08-13T11:51:48.777Z,30
2018-08-13T11:52:48.789Z,30.02
2018-08-13T11:53:48.785Z,30.06
2018-08-13T11:54:49.051Z,30.07
2018-08-13T11:55:49.065Z,30.03
2018-08-13T11:56:49.107Z,29.94
2018-08-13T11:57:49.067Z,29.88
2018-08-13T11:58:49.079Z,29.76
2018-08-13T11:59:49.073Z,29.88
2018-08-13T12:00:49.085Z,29.89
2018-08-13T12:01:48.829Z,29.81
2018-08-13T12:02:49.094Z,29.87
2018-08-13T12:03:49.094Z,29.81
2018-08-13T12:04:49.115Z,29.69
2018-08-13T12:05:48.849Z,29.72
2018-08-13T12:06:49.114Z,29.73
2018-08-13T12:07:48.866Z,29.7
2018-08-13T12:08:49.118Z,29.69
2018-08-13T12:09:49.124Z,29.72
2018-08-13T12:10:48.881Z,29.69
2018-08-13T12:11:49.140Z,29.81
2018-08-13T12:12:48.894Z,29.82
2018-08-13T12:13:49.155Z,29.75
2018-08-13T12:14:49.150Z,29.75
2018-08-13T12:15:49.160Z,29.72
2018-08-13T12:16:49.163Z,29.7
2018-08-13T12:17:49.171Z,29.75
2018-08-13T12:18:48.915Z,29.81
2018-08-13T12:19:49.179Z,29.81
2018-08-13T12:20:48.930Z,29.69
2018-08-13T12:21:48.934Z,29.79
2018-08-13T12:22:49.198Z,29.66
2018-08-13T12:23:49.206Z,29.7
2018-08-13T12:24:48.949Z,29.66
2018-08-13T12:25:49.208Z,29.66
2018-08-13T12:26:49.225Z,29.6
2018-08-13T12:27:49.224Z,29.65
2018-08-13T12:28:49.223Z,29.65
2018-08-13T12:29:49.232Z,29.7
2018-08-13T12:30:49.233Z,29.67
2018-08-13T12:31:48.988Z,29.69
2018-08-13T12:32:49.246Z,29.69
2018-08-13T12:33:49.251Z,29.65
2018-08-13T12:34:49.260Z,29.63
2018-08-13T12:35:49.261Z,29.61
2018-08-13T12:36:49.263Z,29.6
2018-08-13T12:37:49.277Z,29.42
2018-08-13T12:38:49.023Z,29.48
2018-08-13T12:39:49.282Z,29.36
2018-08-13T12:40:49.288Z,29.26
2018-08-13T12:41:49.293Z,29.14
2018-08-13T12:42:48.784Z,29.05
2018-08-13T12:43:49.305Z,28.98
2018-08-13T12:44:49.051Z,28.98
2018-08-13T12:45:49.312Z,29.11
2018-08-13T12:46:48.803Z,29.32
2018-08-13T12:47:49.370Z,29.6
2018-08-13T12:48:49.336Z,29.65
2018-08-13T12:49:49.336Z,29.76
2018-08-13T12:50:49.336Z,29.89
2018-08-13T12:51:49.344Z,29.87
2018-08-13T12:52:49.358Z,29.85
2018-08-13T12:53:49.356Z,29.76
2018-08-13T12:54:49.357Z,29.61
2018-08-13T12:55:49.369Z,29.39
2018-08-13T12:56:49.112Z,29.36